Time,TemperatureF,DewpointF,PressureIn,WindDirection,WindDirectionDegrees,WindSpeedMPH,WindSpeedGustMPH,Humidity,HourlyPrecipIn,Conditions,Clouds,dailyrainin,SoftwareType,DateUTC
2013-03-08 00:00:00,33.4,25.3,23.12,SW,225,0.0,0.0,72,0.00,,,0.00,meteohub,2013-03-08 05:00:00,
2013-03-08 00:01:00,33.4,25.3,23.12,SW,225,0.0,0.0,72,0.00,,,0.00,meteohub,2013-03-08 05:01:00,
2013-03-08 00:03:00,33.4,25.7,23.13,SW,225,0.0,0.0,73,0.00,,,0.00,meteohub,2013-03-08 05:03:00,
2013-03-08 00:09:00,33.4,25.7,23.13,SW,225,0.0,0.0,73,0.00,,,0.00,meteohub,2013-03-08 05:09:00,
2013-03-08 00:14:00,33.6,25.9,23.12,SW,225,0.0,0.0,73,0.00,,,0.00,meteohub,2013-03-08 05:14:00,
2013-03-08 00:19:00,33.8,25.7,23.13,SW,225,0.0,0.0,72,0.00,,,0.00,meteohub,2013-03-08 05:19:00,
2013-03-08 00:24:00,33.6,25.9,23.13,SW,225,0.0,0.0,73,0.00,,,0.00,meteohub,2013-03-08 05:24:00,
2013-03-08 00:29:00,33.8,26.1,23.12,SW,225,0.0,0.0,73,0.00,,,0.00,meteohub,2013-03-08 05:29:00,
2013-03-08 00:35:00,33.6,25.9,23.12,SW,225,0.0,0.0,73,0.00,,,0.00,meteohub,2013-03-08 05:35:00,
2013-03-08 00:40:00,33.6,25.9,23.13,SW,225,0.0,0.0,73,0.00,,,0.00,meteohub,2013-03-08 05:40:00,
2013-03-08 00:45:00,33.6,25.9,23.12,SW,225,0.0,0.0,73,0.00,,,0.00,meteohub,2013-03-08 05:45:00,
2013-03-08 00:50:00,33.4,25.3,23.12,SW,225,0.0,0.0,72,0.00,,,0.00,meteohub,2013-03-08 05:50:00,
2013-03-08 00:55:00,33.3,24.8,23.11,SW,225,1.0,0.0,71,0.00,,,0.00,meteohub,2013-03-08 05:55:00,
2013-03-08 01:00:00,33.3,24.8,23.12,SE,135,0.0,1.0,71,0.00,,,0.00,meteohub,2013-03-08 06:00:00,
2013-03-08 01:05:00,33.1,24.6,23.12,West,270,0.0,1.0,71,0.00,,,0.00,meteohub,2013-03-08 06:05:00,
2013-03-08 01:10:00,32.9,24.6,23.12,SE,135,0.0,1.0,71,0.00,,,0.00,meteohub,2013-03-08 06:10:00,
2013-03-08 01:15:00,32.9,24.6,23.11,South,180,0.0,0.0,71,0.00,,,0.00,meteohub,2013-03-08 06:15:00,
2013-03-08 01:20:00,32.9,24.6,23.12,South,180,0.0,0.0,71,0.00,,,0.00,meteohub,2013-03-08 06:20:00,
2013-03-08 01:25:00,32.9,24.6,23.11,South,180,0.0,0.0,71,0.00,,,0.00,meteohub,2013-03-08 06:25:00,
2013-03-08 01:30:00,32.9,24.8,23.12,South,180,0.0,0.0,72,0.00,,,0.00,meteohub,2013-03-08 06:30:00,
2013-03-08 01:36:00,32.9,24.8,23.11,South,180,0.0,0.0,72,0.00,,,0.00,meteohub,2013-03-08 06:36:00,
2013-03-08 01:41:00,32.9,24.8,23.12,South,180,0.0,0.0,72,0.00,,,0.00,meteohub,2013-03-08 06:41:00,
2013-03-08 01:46:00,32.7,24.6,23.11,South,180,0.0,0.0,72,0.00,,,0.00,meteohub,2013-03-08 06:46:00,
2013-03-08 01:51:00,32.7,24.6,23.11,South,180,0.0,0.0,72,0.00,,,0.00,meteohub,2013-03-08 06:51:00,
2013-03-08 01:56:00,32.7,24.6,23.11,South,180,0.0,0.0,72,0.00,,,0.00,meteohub,2013-03-08 06:56:00,
2013-03-08 02:01:00,32.5,24.4,23.11,South,180,0.0,0.0,72,0.00,,,0.00,meteohub,2013-03-08 07:01:00,
2013-03-08 02:06:00,32.5,24.4,23.10,South,180,0.0,0.0,72,0.00,,,0.00,meteohub,2013-03-08 07:06:00,
2013-03-08 02:11:00,32.4,24.3,23.11,South,180,0.0,0.0,72,0.00,,,0.00,meteohub,2013-03-08 07:11:00,
2013-03-08 02:16:00,32.4,24.3,23.10,South,180,0.0,0.0,72,0.00,,,0.00,meteohub,2013-03-08 07:16:00,
2013-03-08 02:21:00,32.4,24.3,23.10,South,180,0.0,0.0,72,0.00,,,0.00,meteohub,2013-03-08 07:21:00,
2013-03-08 02:26:00,32.2,24.3,23.10,South,180,0.0,0.0,72,0.00,,,0.00,meteohub,2013-03-08 07:26:00,
2013-03-08 02:31:00,32.0,24.3,23.10,South,180,0.0,0.0,73,0.00,,,0.00,meteohub,2013-03-08 07:31:00,
2013-03-08 02:36:00,32.0,24.3,23.10,South,180,0.0,0.0,73,0.00,,,0.00,meteohub,2013-03-08 07:36:00,
2013-03-08 02:41:00,31.8,24.4,23.10,South,180,0.0,0.0,74,0.00,,,0.00,meteohub,2013-03-08 07:41:00,
2013-03-08 02:46:00,31.6,24.3,23.10,South,180,0.0,0.0,74,0.00,,,0.00,meteohub,2013-03-08 07:46:00,
2013-03-08 02:51:00,31.8,24.4,23.10,South,180,0.0,0.0,74,0.00,,,0.00,meteohub,2013-03-08 07:51:00,
2013-03-08 02:56:00,31.8,24.4,23.10,South,180,0.0,0.0,74,0.00,,,0.00,meteohub,2013-03-08 07:56:00,
2013-03-08 03:01:00,31.6,24.3,23.10,South,180,0.0,0.0,74,0.00,,,0.00,meteohub,2013-03-08 08:01:00,
2013-03-08 03:06:00,31.6,24.3,23.10,South,180,0.0,0.0,74,0.00,,,0.00,meteohub,2013-03-08 08:06:00,
2013-03-08 03:11:00,31.8,24.4,23.10,South,180,0.0,0.0,74,0.00,,,0.00,meteohub,2013-03-08 08:11:00,
2013-03-08 03:16:00,31.8,24.4,23.10,North,0,1.0,0.0,74,0.00,,,0.00,meteohub,2013-03-08 08:16:00,
2013-03-08 03:21:00,31.6,24.3,23.10,NE,45,0.0,2.0,74,0.00,,,0.00,meteohub,2013-03-08 08:21:00,
2013-03-08 03:26:00,31.5,24.1,23.10,NE,45,0.0,2.0,74,0.00,,,0.00,meteohub,2013-03-08 08:26:00,
2013-03-08 03:31:00,31.3,23.9,23.10,NE,45,0.0,2.0,74,0.00,,,0.00,meteohub,2013-03-08 08:31:00,
2013-03-08 03:36:00,31.1,23.7,23.10,NE,45,0.0,2.0,74,0.00,,,0.00,meteohub,2013-03-08 08:36:00,
2013-03-08 03:41:00,31.1,23.7,23.09,NE,45,0.0,2.0,74,0.00,,,0.00,meteohub,2013-03-08 08:41:00,
2013-03-08 03:46:00,30.9,23.5,23.09,NE,45,2.0,2.0,74,0.00,,,0.00,meteohub,2013-03-08 08:46:00,
2013-03-08 03:51:00,30.9,23.5,23.09,SW,225,0.0,2.0,74,0.00,,,0.00,meteohub,2013-03-08 08:51:00,
2013-03-08 03:56:00,30.9,23.5,23.09,NE,45,2.0,2.0,74,0.00,,,0.00,meteohub,2013-03-08 08:56:00,
2013-03-08 04:01:00,30.9,23.9,23.09,North,0,0.0,2.0,75,0.00,,,0.00,meteohub,2013-03-08 09:01:00,
2013-03-08 04:06:00,31.1,24.1,23.09,West,270,0.0,2.0,75,0.00,,,0.00,meteohub,2013-03-08 09:06:00,
2013-03-08 04:11:00,31.3,24.3,23.08,West,270,0.0,2.0,75,0.00,,,0.00,meteohub,2013-03-08 09:11:00,
2013-03-08 04:16:00,31.5,24.4,23.09,West,270,0.0,0.0,75,0.00,,,0.00,meteohub,2013-03-08 09:16:00,
2013-03-08 04:21:00,31.5,24.1,23.09,West,270,0.0,0.0,74,0.00,,,0.00,meteohub,2013-03-08 09:21:00,
2013-03-08 04:26:00,31.5,24.1,23.09,West,270,0.0,0.0,74,0.00,,,0.00,meteohub,2013-03-08 09:26:00,
2013-03-08 04:31:00,31.3,23.9,23.09,West,270,0.0,0.0,74,0.00,,,0.00,meteohub,2013-03-08 09:31:00,
2013-03-08 04:36:00,31.3,23.9,23.08,West,270,0.0,0.0,74,0.00,,,0.00,meteohub,2013-03-08 09:36:00,
2013-03-08 04:41:00,31.1,23.7,23.08,North,0,2.0,0.0,74,0.00,,,0.00,meteohub,2013-03-08 09:41:00,
2013-03-08 04:46:00,31.1,23.7,23.08,North,0,1.0,2.0,74,0.00,,,0.00,meteohub,2013-03-08 09:46:00,
2013-03-08 04:51:00,30.9,23.5,23.08,North,0,0.0,2.0,74,0.00,,,0.00,meteohub,2013-03-08 09:51:00,
2013-03-08 04:56:00,30.9,23.5,23.07,North,0,0.0,2.0,74,0.00,,,0.00,meteohub,2013-03-08 09:56:00,
2013-03-08 05:01:00,30.9,23.5,23.07,North,0,0.0,2.0,74,0.00,,,0.00,meteohub,2013-03-08 10:01:00,
2013-03-08 05:06:00,30.9,23.5,23.07,North,0,0.0,0.0,74,0.00,,,0.00,meteohub,2013-03-08 10:06:00,
2013-03-08 05:11:00,30.7,23.7,23.07,North,0,0.0,1.0,75,0.00,,,0.00,meteohub,2013-03-08 10:11:00,
2013-03-08 05:16:00,30.6,23.5,23.07,North,0,2.0,2.0,75,0.00,,,0.00,meteohub,2013-03-08 10:16:00,
2013-03-08 05:21:00,30.4,23.4,23.07,NNE,23,2.0,2.0,75,0.00,,,0.00,meteohub,2013-03-08 10:21:00,
2013-03-08 05:26:00,30.4,23.4,23.07,NE,45,2.0,2.0,75,0.00,,,0.00,meteohub,2013-03-08 10:26:00,
2013-03-08 05:31:00,30.6,23.5,23.07,North,0,1.0,2.0,75,0.00,,,0.00,meteohub,2013-03-08 10:31:00,
2013-03-08 05:36:00,30.6,23.5,23.07,West,270,0.0,2.0,75,0.00,,,0.00,meteohub,2013-03-08 10:36:00,
2013-03-08 05:41:00,30.6,23.9,23.06,West,270,0.0,2.0,76,0.00,,,0.00,meteohub,2013-03-08 10:41:00,
2013-03-08 05:46:00,30.7,24.1,23.06,West,270,0.0,1.0,76,0.00,,,0.00,meteohub,2013-03-08 10:46:00,
2013-03-08 05:51:00,30.9,24.3,23.06,West,270,0.0,0.0,76,0.00,,,0.00,meteohub,2013-03-08 10:51:00,
2013-03-08 05:56:00,30.7,24.1,23.06,North,0,0.0,0.0,76,0.00,,,0.00,meteohub,2013-03-08 10:56:00,
2013-03-08 06:01:00,30.6,23.9,23.05,North,0,0.0,0.0,76,0.00,,,0.00,meteohub,2013-03-08 11:01:00,
2013-03-08 06:06:00,30.6,23.9,23.05,North,0,0.0,2.0,76,0.00,,,0.00,meteohub,2013-03-08 11:06:00,
2013-03-08 06:11:00,30.6,23.9,23.05,South,180,0.0,2.0,76,0.00,,,0.00,meteohub,2013-03-08 11:11:00,
2013-03-08 06:16:00,30.6,23.9,23.06,South,180,0.0,2.0,76,0.00,,,0.00,meteohub,2013-03-08 11:16:00,
2013-03-08 06:21:00,30.7,24.1,23.05,North,0,0.0,1.0,76,0.00,,,0.00,meteohub,2013-03-08 11:21:00,
2013-03-08 06:26:00,30.7,24.1,23.05,North,0,0.0,2.0,76,0.00,,,0.00,meteohub,2013-03-08 11:26:00,
2013-03-08 06:31:00,30.7,24.1,23.05,North,0,0.0,2.0,76,0.00,,,0.00,meteohub,2013-03-08 11:31:00,
2013-03-08 06:36:00,30.7,24.1,23.05,North,0,2.0,2.0,76,0.00,,,0.00,meteohub,2013-03-08 11:36:00,
2013-03-08 06:41:00,30.6,23.9,23.05,North,0,0.0,2.0,76,0.00,,,0.00,meteohub,2013-03-08 11:41:00,
2013-03-08 06:46:00,30.6,23.9,23.05,North,0,0.0,2.0,76,0.00,,,0.00,meteohub,2013-03-08 11:46:00,
2013-03-08 06:51:00,30.6,23.9,23.05,North,0,0.0,2.0,76,0.00,,,0.00,meteohub,2013-03-08 11:51:00,
2013-03-08 06:56:00,30.6,23.9,23.05,North,0,0.0,0.0,76,0.00,,,0.00,meteohub,2013-03-08 11:56:00,
2013-03-08 07:01:00,30.6,23.9,23.05,North,0,0.0,0.0,76,0.00,,,0.00,meteohub,2013-03-08 12:01:00,
2013-03-08 07:06:00,30.6,23.9,23.05,North,0,0.0,0.0,76,0.00,,,0.00,meteohub,2013-03-08 12:06:00,
2013-03-08 07:11:00,30.7,24.1,23.05,West,270,1.0,0.0,76,0.00,,,0.00,meteohub,2013-03-08 12:11:00,
2013-03-08 07:16:00,30.7,24.1,23.06,SW,225,0.0,1.0,76,0.00,,,0.00,meteohub,2013-03-08 12:16:00,
2013-03-08 07:21:00,30.7,24.1,23.05,SW,225,0.0,1.0,76,0.00,,,0.00,meteohub,2013-03-08 12:21:00,
2013-03-08 07:26:00,30.7,24.4,23.06,SW,225,0.0,1.0,77,0.00,,,0.00,meteohub,2013-03-08 12:26:00,
2013-03-08 07:31:00,30.7,24.4,23.05,SW,225,0.0,0.0,77,0.00,,,0.00,meteohub,2013-03-08 12:31:00,
2013-03-08 07:36:00,30.7,24.4,23.06,SW,225,0.0,0.0,77,0.00,,,0.00,meteohub,2013-03-08 12:36:00,
2013-03-08 07:41:00,30.7,24.4,23.05,SW,225,0.0,0.0,77,0.00,,,0.00,meteohub,2013-03-08 12:41:00,
2013-03-08 07:46:00,30.7,24.4,23.06,SW,225,0.0,0.0,77,0.00,,,0.00,meteohub,2013-03-08 12:46:00,
2013-03-08 07:51:00,30.7,24.4,23.06,SW,225,0.0,0.0,77,0.00,,,0.00,meteohub,2013-03-08 12:51:00,
2013-03-08 07:56:00,30.7,24.4,23.06,SW,225,0.0,0.0,77,0.00,,,0.00,meteohub,2013-03-08 12:56:00,
2013-03-08 08:01:00,30.7,24.4,23.07,SW,225,0.0,0.0,77,0.00,,,0.00,meteohub,2013-03-08 13:01:00,
2013-03-08 08:06:00,30.9,24.6,23.07,SW,225,0.0,0.0,77,0.00,,,0.00,meteohub,2013-03-08 13:06:00,
2013-03-08 08:11:00,30.9,24.6,23.07,North,0,0.0,0.0,77,0.00,,,0.00,meteohub,2013-03-08 13:11:00,
2013-03-08 08:16:00,30.9,24.6,23.06,North,0,0.0,0.0,77,0.00,,,0.00,meteohub,2013-03-08 13:16:00,
2013-03-08 08:21:00,30.7,24.4,23.06,North,0,1.0,0.0,77,0.00,,,0.00,meteohub,2013-03-08 13:21:00,
2013-03-08 08:26:00,30.6,24.3,23.06,North,0,0.0,2.0,77,0.00,,,0.00,meteohub,2013-03-08 13:26:00,
2013-03-08 08:31:00,30.6,24.3,23.07,North,0,1.0,2.0,77,0.00,,,0.00,meteohub,2013-03-08 13:31:00,
2013-03-08 08:36:00,30.4,24.1,23.06,North,0,0.0,2.0,77,0.00,,,0.00,meteohub,2013-03-08 13:36:00,
2013-03-08 08:41:00,30.4,24.1,23.06,North,0,2.0,2.0,77,0.00,,,0.00,meteohub,2013-03-08 13:41:00,
2013-03-08 08:46:00,30.4,24.3,23.06,North,0,0.0,2.0,78,0.00,,,0.00,meteohub,2013-03-08 13:46:00,
2013-03-08 08:51:00,30.2,24.3,23.06,North,0,0.0,2.0,78,0.00,,,0.00,meteohub,2013-03-08 13:51:00,
2013-03-08 08:56:00,30.2,24.3,23.06,North,0,0.0,2.0,78,0.00,,,0.00,meteohub,2013-03-08 13:56:00,
2013-03-08 09:01:00,30.2,24.3,23.06,SW,225,0.0,2.0,78,0.00,,,0.00,meteohub,2013-03-08 14:01:00,
2013-03-08 09:06:00,30.2,24.3,23.05,SW,225,0.0,0.0,78,0.00,,,0.00,meteohub,2013-03-08 14:06:00,
2013-03-08 09:11:00,30.2,24.3,23.05,West,270,0.0,0.0,78,0.00,,,0.00,meteohub,2013-03-08 14:11:00,
2013-03-08 09:16:00,30.0,24.3,23.05,North,0,0.0,0.0,79,0.00,,,0.00,meteohub,2013-03-08 14:16:00,
2013-03-08 09:21:00,30.0,24.3,23.05,West,270,0.0,0.0,79,0.00,,,0.00,meteohub,2013-03-08 14:21:00,
2013-03-08 09:26:00,30.0,24.6,23.05,West,270,0.0,0.0,80,0.00,,,0.00,meteohub,2013-03-08 14:26:00,
2013-03-08 09:31:00,30.2,24.4,23.05,NW,315,0.0,0.0,79,0.00,,,0.00,meteohub,2013-03-08 14:31:00,
2013-03-08 09:36:00,30.2,24.4,23.05,South,180,0.0,0.0,79,0.00,,,0.00,meteohub,2013-03-08 14:36:00,
2013-03-08 09:41:00,30.4,24.6,23.05,North,0,0.0,0.0,79,0.00,,,0.00,meteohub,2013-03-08 14:41:00,
2013-03-08 09:46:00,30.6,24.8,23.05,NNW,338,0.0,0.0,79,0.00,,,0.00,meteohub,2013-03-08 14:46:00,
2013-03-08 09:51:00,30.2,24.4,23.05,North,0,0.0,0.0,79,0.00,,,0.00,meteohub,2013-03-08 14:51:00,
2013-03-08 09:56:00,30.4,24.6,23.06,NNE,23,0.0,0.0,79,0.00,,,0.00,meteohub,2013-03-08 14:56:00,
2013-03-08 10:01:00,30.4,24.6,23.05,North,0,0.0,0.0,79,0.00,,,0.00,meteohub,2013-03-08 15:01:00,
2013-03-08 10:06:00,30.7,25.3,23.05,NE,45,0.0,0.0,80,0.00,,,0.00,meteohub,2013-03-08 15:06:00,
2013-03-08 10:11:00,31.1,25.7,23.05,NE,45,0.0,0.0,80,0.00,,,0.00,meteohub,2013-03-08 15:11:00,
2013-03-08 10:16:00,31.6,26.2,23.05,North,0,0.0,0.0,80,0.00,,,0.00,meteohub,2013-03-08 15:16:00,
2013-03-08 10:21:00,32.2,26.4,23.05,NW,315,0.0,0.0,79,0.00,,,0.00,meteohub,2013-03-08 15:21:00,
2013-03-08 10:26:00,32.5,26.8,23.05,North,0,0.0,0.0,79,0.00,,,0.00,meteohub,2013-03-08 15:26:00,
2013-03-08 10:31:00,32.7,27.0,23.05,NNW,338,4.0,4.0,79,0.00,,,0.00,meteohub,2013-03-08 15:31:00,
2013-03-08 10:36:00,32.7,26.2,23.05,East,90,4.0,4.0,77,0.00,,,0.00,meteohub,2013-03-08 15:36:00,
2013-03-08 10:41:00,33.1,26.4,23.05,North,0,5.0,5.0,76,0.01,,,0.01,meteohub,2013-03-08 15:41:00,
2013-03-08 10:46:00,33.4,26.4,23.05,NE,45,5.0,8.0,75,0.01,,,0.01,meteohub,2013-03-08 15:46:00,
2013-03-08 10:51:00,33.6,26.2,23.05,NE,45,5.0,8.0,74,0.01,,,0.01,meteohub,2013-03-08 15:51:00,
2013-03-08 10:56:00,34.0,26.2,23.05,NNW,338,7.0,8.0,73,0.01,,,0.01,meteohub,2013-03-08 15:56:00,
2013-03-08 11:01:00,34.0,25.9,23.05,North,0,6.0,9.0,72,0.01,,,0.01,meteohub,2013-03-08 16:01:00,
2013-03-08 11:06:00,34.0,25.9,23.05,North,0,6.0,9.0,72,0.01,,,0.01,meteohub,2013-03-08 16:06:00,
2013-03-08 11:11:00,35.2,26.4,23.05,NNW,338,4.0,9.0,70,0.01,,,0.01,meteohub,2013-03-08 16:11:00,
2013-03-08 11:16:00,36.0,26.1,23.05,NNW,338,4.0,7.0,67,0.01,,,0.01,meteohub,2013-03-08 16:16:00,
2013-03-08 11:21:00,36.7,26.4,23.05,North,0,2.0,7.0,66,0.01,,,0.01,meteohub,2013-03-08 16:21:00,
2013-03-08 11:26:00,37.6,28.8,23.05,North,0,5.0,7.0,70,0.01,,,0.01,meteohub,2013-03-08 16:26:00,
2013-03-08 11:31:00,38.1,28.6,23.05,North,0,2.0,5.0,68,0.01,,,0.01,meteohub,2013-03-08 16:31:00,
2013-03-08 11:36:00,38.8,28.8,23.04,North,0,2.0,5.0,67,0.01,,,0.01,meteohub,2013-03-08 16:36:00,
2013-03-08 11:41:00,38.3,27.5,23.04,NE,45,2.0,5.0,65,0.00,,,0.01,meteohub,2013-03-08 16:41:00,
2013-03-08 11:46:00,38.8,28.4,23.04,West,270,1.0,5.0,66,0.00,,,0.01,meteohub,2013-03-08 16:46:00,
2013-03-08 11:51:00,39.2,28.8,23.03,South,180,0.0,5.0,66,0.00,,,0.01,meteohub,2013-03-08 16:51:00,
2013-03-08 11:56:00,40.1,29.7,23.03,SW,225,2.0,4.0,66,0.00,,,0.01,meteohub,2013-03-08 16:56:00,
2013-03-08 12:01:00,41.0,29.3,23.03,NE,45,3.0,3.0,63,0.00,,,0.01,meteohub,2013-03-08 17:01:00,
2013-03-08 12:06:00,40.5,28.0,23.03,North,0,4.0,4.0,61,0.00,,,0.01,meteohub,2013-03-08 17:06:00,
2013-03-08 12:11:00,39.7,27.3,23.03,North,0,4.0,4.0,61,0.00,,,0.01,meteohub,2013-03-08 17:11:00,
2013-03-08 12:16:00,39.6,27.1,23.03,North,0,5.0,5.0,61,0.00,,,0.01,meteohub,2013-03-08 17:16:00,
2013-03-08 12:21:00,39.4,27.1,23.03,North,0,5.0,7.0,61,0.00,,,0.01,meteohub,2013-03-08 17:21:00,
2013-03-08 12:26:00,39.4,26.6,23.03,NNE,23,4.0,7.0,60,0.00,,,0.01,meteohub,2013-03-08 17:26:00,
2013-03-08 12:31:00,39.6,26.1,23.03,North,0,6.0,7.0,58,0.00,,,0.01,meteohub,2013-03-08 17:31:00,
2013-03-08 12:36:00,39.6,25.5,23.03,North,0,4.0,8.0,57,0.00,,,0.01,meteohub,2013-03-08 17:36:00,
2013-03-08 12:41:00,40.5,26.4,23.03,North,0,3.0,8.0,57,0.00,,,0.01,meteohub,2013-03-08 17:41:00,
2013-03-08 12:46:00,40.8,26.4,23.02,NNE,23,2.0,8.0,56,0.00,,,0.01,meteohub,2013-03-08 17:46:00,
2013-03-08 12:51:00,40.8,26.4,23.02,NE,45,4.0,7.0,56,0.00,,,0.01,meteohub,2013-03-08 17:51:00,
2013-03-08 12:56:00,40.5,26.1,23.02,NW,315,4.0,7.0,56,0.00,,,0.01,meteohub,2013-03-08 17:56:00,
2013-03-08 13:01:00,40.5,26.1,23.02,NE,45,6.0,7.0,56,0.00,,,0.01,meteohub,2013-03-08 18:01:00,
2013-03-08 13:06:00,40.5,26.1,23.02,NE,45,6.0,6.0,56,0.00,,,0.01,meteohub,2013-03-08 18:06:00,
2013-03-08 13:11:00,39.4,25.0,23.02,North,0,4.0,6.0,56,0.00,,,0.01,meteohub,2013-03-08 18:11:00,
2013-03-08 13:16:00,39.9,25.5,23.02,NNW,338,4.0,6.0,56,0.00,,,0.01,meteohub,2013-03-08 18:16:00,
2013-03-08 13:21:00,39.9,25.0,23.02,North,0,3.0,8.0,55,0.00,,,0.01,meteohub,2013-03-08 18:21:00,
2013-03-08 13:26:00,39.9,24.6,23.01,NW,315,2.0,8.0,54,0.00,,,0.01,meteohub,2013-03-08 18:26:00,
2013-03-08 13:31:00,39.7,25.0,23.01,North,0,8.0,8.0,55,0.00,,,0.01,meteohub,2013-03-08 18:31:00,
2013-03-08 13:36:00,39.6,24.8,23.02,North,0,5.0,8.0,55,0.00,,,0.01,meteohub,2013-03-08 18:36:00,
2013-03-08 13:41:00,39.7,24.4,23.01,NE,45,8.0,8.0,54,0.00,,,0.01,meteohub,2013-03-08 18:41:00,
2013-03-08 13:46:00,39.6,24.3,23.01,North,0,5.0,8.0,54,0.00,,,0.01,meteohub,2013-03-08 18:46:00,
2013-03-08 13:51:00,39.7,24.4,23.01,North,0,6.0,8.0,54,0.00,,,0.01,meteohub,2013-03-08 18:51:00,
2013-03-08 13:56:00,39.7,24.4,23.01,NNE,23,6.0,8.0,54,0.00,,,0.01,meteohub,2013-03-08 18:56:00,
2013-03-08 14:01:00,39.7,24.4,23.01,NNE,23,5.0,8.0,54,0.00,,,0.01,meteohub,2013-03-08 19:01:00,
2013-03-08 14:06:00,39.7,24.4,23.01,NE,45,5.0,8.0,54,0.00,,,0.01,meteohub,2013-03-08 19:06:00,
2013-03-08 14:11:00,39.9,24.6,23.01,West,270,5.0,8.0,54,0.00,,,0.01,meteohub,2013-03-08 19:11:00,
2013-03-08 14:16:00,40.1,24.8,23.00,North,0,3.0,8.0,54,0.00,,,0.01,meteohub,2013-03-08 19:16:00,
2013-03-08 14:21:00,40.1,24.8,23.00,NW,315,4.0,7.0,54,0.00,,,0.01,meteohub,2013-03-08 19:21:00,
2013-03-08 14:26:00,40.5,24.6,23.00,North,0,4.0,7.0,53,0.00,,,0.01,meteohub,2013-03-08 19:26:00,
2013-03-08 14:31:00,40.8,25.0,23.00,NE,45,2.0,6.0,53,0.00,,,0.01,meteohub,2013-03-08 19:31:00,
2013-03-08 14:36:00,41.4,25.0,23.00,North,0,2.0,6.0,52,0.00,,,0.01,meteohub,2013-03-08 19:36:00,
2013-03-08 14:41:00,41.5,24.8,23.00,NW,315,2.0,4.0,51,0.00,,,0.01,meteohub,2013-03-08 19:41:00,
2013-03-08 14:46:00,42.1,25.3,23.00,West,270,2.0,4.0,51,0.00,,,0.01,meteohub,2013-03-08 19:46:00,
2013-03-08 14:51:00,42.1,24.8,22.99,North,0,4.0,4.0,50,0.00,,,0.01,meteohub,2013-03-08 19:51:00,
2013-03-08 14:56:00,41.9,25.2,22.99,NW,315,2.0,6.0,51,0.00,,,0.01,meteohub,2013-03-08 19:56:00,
2013-03-08 15:01:00,41.9,24.6,22.99,SW,225,2.0,6.0,50,0.00,,,0.01,meteohub,2013-03-08 20:01:00,
2013-03-08 15:06:00,41.9,24.6,22.99,SW,225,2.0,6.0,50,0.00,,,0.01,meteohub,2013-03-08 20:06:00,
2013-03-08 15:11:00,41.2,25.9,22.98,NW,315,5.0,5.0,54,0.00,,,0.01,meteohub,2013-03-08 20:11:00,
2013-03-08 15:16:00,40.6,25.7,22.98,North,0,6.0,6.0,55,0.00,,,0.01,meteohub,2013-03-08 20:16:00,
2013-03-08 15:21:00,39.9,25.5,22.99,North,0,5.0,8.0,56,0.00,,,0.01,meteohub,2013-03-08 20:21:00,
2013-03-08 15:26:00,39.4,25.0,22.98,WSW,248,6.0,8.0,56,0.00,,,0.01,meteohub,2013-03-08 20:26:00,
2013-03-08 15:31:00,39.4,24.6,22.98,NW,315,6.0,8.0,55,0.00,,,0.01,meteohub,2013-03-08 20:31:00,
2013-03-08 15:36:00,39.2,24.8,22.98,NNE,23,5.0,7.0,56,0.00,,,0.01,meteohub,2013-03-08 20:36:00,
2013-03-08 15:41:00,39.0,25.5,22.97,North,0,6.0,8.0,58,0.00,,,0.01,meteohub,2013-03-08 20:41:00,
2013-03-08 15:46:00,39.0,25.9,22.98,North,0,8.0,8.0,59,0.00,,,0.01,meteohub,2013-03-08 20:46:00,
2013-03-08 15:51:00,39.0,26.2,22.97,West,270,2.0,8.0,60,0.00,,,0.01,meteohub,2013-03-08 20:51:00,
2013-03-08 15:56:00,39.0,25.9,22.97,North,0,5.0,8.0,59,0.00,,,0.01,meteohub,2013-03-08 20:56:00,
2013-03-08 16:01:00,38.8,26.1,22.97,NW,315,6.0,8.0,60,0.00,,,0.01,meteohub,2013-03-08 21:01:00,
2013-03-08 16:06:00,38.8,25.7,22.97,North,0,3.0,8.0,59,0.00,,,0.01,meteohub,2013-03-08 21:06:00,
2013-03-08 16:11:00,39.0,25.9,22.97,North,0,4.0,8.0,59,0.00,,,0.01,meteohub,2013-03-08 21:11:00,
2013-03-08 16:16:00,39.0,25.9,22.97,North,0,4.0,8.0,59,0.00,,,0.01,meteohub,2013-03-08 21:16:00,
2013-03-08 16:21:00,39.2,25.7,22.97,NE,45,4.0,8.0,58,0.00,,,0.01,meteohub,2013-03-08 21:21:00,
2013-03-08 16:26:00,39.6,26.1,22.97,NNE,23,4.0,7.0,58,0.00,,,0.01,meteohub,2013-03-08 21:26:00,
2013-03-08 16:31:00,39.7,25.7,22.96,West,270,3.0,5.0,57,0.00,,,0.01,meteohub,2013-03-08 21:31:00,
2013-03-08 16:36:00,40.1,25.7,22.97,North,0,4.0,4.0,56,0.00,,,0.01,meteohub,2013-03-08 21:36:00,
2013-03-08 16:41:00,40.3,25.3,22.96,NW,315,2.0,5.0,55,0.00,,,0.01,meteohub,2013-03-08 21:41:00,
2013-03-08 16:46:00,40.3,25.3,22.96,West,270,2.0,5.0,55,0.00,,,0.01,meteohub,2013-03-08 21:46:00,
2013-03-08 16:51:00,40.5,25.5,22.97,North,0,3.0,5.0,55,0.00,,,0.01,meteohub,2013-03-08 21:51:00,
2013-03-08 16:56:00,40.3,25.0,22.97,North,0,4.0,4.0,54,0.00,,,0.01,meteohub,2013-03-08 21:56:00,
2013-03-08 17:01:00,40.1,24.8,22.97,North,0,2.0,4.0,54,0.00,,,0.01,meteohub,2013-03-08 22:01:00,
2013-03-08 17:06:00,40.1,24.8,22.96,North,0,2.0,4.0,54,0.00,,,0.01,meteohub,2013-03-08 22:06:00,
2013-03-08 17:11:00,40.1,24.8,22.97,North,0,2.0,4.0,54,0.00,,,0.01,meteohub,2013-03-08 22:11:00,
2013-03-08 17:16:00,40.3,25.3,22.97,NE,45,2.0,2.0,55,0.00,,,0.01,meteohub,2013-03-08 22:16:00,
2013-03-08 17:21:00,40.1,25.2,22.96,NW,315,1.0,2.0,55,0.00,,,0.01,meteohub,2013-03-08 22:21:00,
2013-03-08 17:26:00,39.9,25.0,22.96,NE,45,2.0,4.0,55,0.00,,,0.01,meteohub,2013-03-08 22:26:00,
2013-03-08 17:31:00,39.7,25.0,22.96,NW,315,1.0,4.0,55,0.00,,,0.01,meteohub,2013-03-08 22:31:00,
2013-03-08 17:36:00,40.1,25.2,22.96,NW,315,0.0,4.0,55,0.00,,,0.01,meteohub,2013-03-08 22:36:00,
2013-03-08 17:41:00,40.1,24.8,22.96,North,0,3.0,4.0,54,0.00,,,0.01,meteohub,2013-03-08 22:41:00,
2013-03-08 17:46:00,39.7,25.0,22.96,North,0,4.0,4.0,55,0.00,,,0.01,meteohub,2013-03-08 22:46:00,
2013-03-08 17:51:00,39.4,24.1,22.96,North,0,2.0,4.0,54,0.00,,,0.01,meteohub,2013-03-08 22:51:00,
2013-03-08 17:56:00,39.0,24.6,22.96,NNE,23,3.0,6.0,56,0.00,,,0.01,meteohub,2013-03-08 22:56:00,
2013-03-08 18:01:00,38.7,24.8,22.96,NE,45,5.0,6.0,57,0.00,,,0.01,meteohub,2013-03-08 23:01:00,
2013-03-08 18:06:00,37.9,25.3,22.96,North,0,3.0,6.0,60,0.00,,,0.01,meteohub,2013-03-08 23:06:00,
2013-03-08 18:11:00,37.0,24.4,22.96,North,0,2.0,5.0,60,0.00,,,0.01,meteohub,2013-03-08 23:11:00,
2013-03-08 18:16:00,36.5,24.3,22.96,North,0,4.0,5.0,61,0.00,,,0.01,meteohub,2013-03-08 23:16:00,
2013-03-08 18:22:00,36.1,24.4,22.96,North,0,2.0,4.0,62,0.00,,,0.01,meteohub,2013-03-08 23:22:00,
2013-03-08 18:26:00,36.0,24.6,22.96,North,0,2.0,4.0,63,0.00,,,0.01,meteohub,2013-03-08 23:26:00,
2013-03-08 18:31:00,35.6,24.6,22.95,NW,315,2.0,4.0,64,0.00,,,0.01,meteohub,2013-03-08 23:31:00,
2013-03-08 18:37:00,35.4,24.8,22.95,North,0,2.0,4.0,65,0.00,,,0.01,meteohub,2013-03-08 23:37:00,
2013-03-08 18:41:00,35.4,24.8,22.95,NNW,338,2.0,4.0,65,0.00,,,0.01,meteohub,2013-03-08 23:41:00,
2013-03-08 18:46:00,35.2,25.0,22.95,North,0,2.0,2.0,66,0.00,,,0.01,meteohub,2013-03-08 23:46:00,
2013-03-08 18:52:00,34.9,25.0,22.95,North,0,0.0,2.0,67,0.00,,,0.01,meteohub,2013-03-08 23:52:00,
2013-03-08 18:57:00,34.7,24.8,22.95,North,0,0.0,2.0,67,0.00,,,0.01,meteohub,2013-03-08 23:57:00,
2013-03-08 19:02:00,34.7,25.2,22.95,North,0,0.0,2.0,68,0.00,,,0.01,meteohub,2013-03-09 00:02:00,
2013-03-08 19:07:00,34.7,25.2,22.95,North,0,0.0,0.0,68,0.00,,,0.01,meteohub,2013-03-09 00:07:00,
2013-03-08 19:12:00,34.7,25.9,22.95,SW,225,0.0,0.0,70,0.00,,,0.01,meteohub,2013-03-09 00:12:00,
2013-03-08 19:17:00,34.7,26.2,22.95,SW,225,0.0,0.0,71,0.00,,,0.01,meteohub,2013-03-09 00:17:00,
2013-03-08 19:23:00,34.7,26.6,22.95,SW,225,0.0,0.0,72,0.00,,,0.01,meteohub,2013-03-09 00:23:00,
2013-03-08 19:28:00,34.7,26.6,22.95,South,180,0.0,0.0,72,0.00,,,0.01,meteohub,2013-03-09 00:28:00,
2013-03-08 19:33:00,34.5,26.4,22.95,South,180,0.0,1.0,72,0.00,,,0.01,meteohub,2013-03-09 00:33:00,
2013-03-08 19:38:00,34.3,26.2,22.95,South,180,0.0,1.0,72,0.00,,,0.01,meteohub,2013-03-09 00:38:00,
2013-03-08 19:43:00,34.3,26.6,22.95,South,180,0.0,1.0,73,0.00,,,0.01,meteohub,2013-03-09 00:43:00,
2013-03-08 19:48:00,34.3,27.0,22.95,South,180,0.0,0.0,74,0.00,,,0.01,meteohub,2013-03-09 00:48:00,
2013-03-08 19:54:00,34.2,26.8,22.95,South,180,0.0,0.0,74,0.00,,,0.01,meteohub,2013-03-09 00:54:00,
2013-03-08 19:59:00,34.2,27.1,22.95,South,180,0.0,0.0,75,0.00,,,0.01,meteohub,2013-03-09 00:59:00,
2013-03-08 20:04:00,34.2,27.1,22.95,South,180,0.0,0.0,75,0.00,,,0.01,meteohub,2013-03-09 01:04:00,
2013-03-08 20:09:00,34.2,27.1,22.95,SW,225,0.0,0.0,75,0.00,,,0.01,meteohub,2013-03-09 01:09:00,
2013-03-08 20:14:00,34.0,27.1,22.95,SW,225,0.0,1.0,76,0.00,,,0.01,meteohub,2013-03-09 01:14:00,
2013-03-08 20:19:00,33.8,27.0,22.95,South,180,0.0,1.0,76,0.00,,,0.01,meteohub,2013-03-09 01:19:00,
2013-03-08 20:24:00,33.8,26.8,22.95,South,180,0.0,1.0,75,0.00,,,0.01,meteohub,2013-03-09 01:24:00,
2013-03-08 20:30:00,33.6,26.8,22.95,South,180,0.0,0.0,76,0.00,,,0.01,meteohub,2013-03-09 01:30:00,
2013-03-08 20:35:00,33.6,26.8,22.95,West,270,0.0,0.0,76,0.00,,,0.01,meteohub,2013-03-09 01:35:00,
2013-03-08 20:40:00,33.6,27.1,22.95,SW,225,0.0,1.0,77,0.00,,,0.01,meteohub,2013-03-09 01:40:00,
2013-03-08 20:45:00,33.4,27.0,22.95,SW,225,0.0,1.0,77,0.00,,,0.01,meteohub,2013-03-09 01:45:00,
2013-03-08 20:50:00,33.4,27.0,22.95,SW,225,0.0,0.0,77,0.00,,,0.01,meteohub,2013-03-09 01:50:00,
2013-03-08 20:55:00,33.4,27.0,22.95,SW,225,0.0,0.0,77,0.00,,,0.01,meteohub,2013-03-09 01:55:00,
2013-03-08 21:00:00,33.3,26.8,22.95,SW,225,0.0,0.0,77,0.00,,,0.01,meteohub,2013-03-09 02:00:00,
2013-03-08 21:06:00,33.3,26.8,22.95,SW,225,0.0,0.0,77,0.00,,,0.01,meteohub,2013-03-09 02:06:00,
2013-03-08 21:11:00,33.3,26.8,22.95,SW,225,0.0,0.0,77,0.00,,,0.01,meteohub,2013-03-09 02:11:00,
2013-03-08 21:16:00,33.3,26.8,22.95,South,180,0.0,0.0,77,0.00,,,0.01,meteohub,2013-03-09 02:16:00,
2013-03-08 21:21:00,33.1,27.0,22.95,SW,225,0.0,0.0,78,0.00,,,0.01,meteohub,2013-03-09 02:21:00,
2013-03-08 21:26:00,32.9,26.8,22.95,SW,225,0.0,0.0,78,0.00,,,0.01,meteohub,2013-03-09 02:26:00,
2013-03-08 21:31:00,32.9,26.8,22.95,NW,315,0.0,0.0,78,0.00,,,0.01,meteohub,2013-03-09 02:31:00,
2013-03-08 21:36:00,32.9,26.8,22.95,South,180,0.0,0.0,78,0.00,,,0.01,meteohub,2013-03-09 02:36:00,
2013-03-08 21:41:00,32.9,26.8,22.95,South,180,0.0,0.0,78,0.00,,,0.01,meteohub,2013-03-09 02:41:00,
2013-03-08 21:46:00,32.9,26.8,22.95,South,180,0.0,0.0,78,0.00,,,0.01,meteohub,2013-03-09 02:46:00,
2013-03-08 21:51:00,32.9,26.8,22.95,South,180,0.0,0.0,78,0.00,,,0.01,meteohub,2013-03-09 02:51:00,
2013-03-08 21:56:00,32.9,27.1,22.95,South,180,0.0,0.0,79,0.00,,,0.01,meteohub,2013-03-09 02:56:00,
2013-03-08 22:01:00,32.9,27.1,22.95,South,180,0.0,0.0,79,0.00,,,0.01,meteohub,2013-03-09 03:01:00,
2013-03-08 22:06:00,32.9,27.1,22.95,South,180,0.0,0.0,79,0.00,,,0.01,meteohub,2013-03-09 03:06:00,
2013-03-08 22:12:00,32.7,27.0,22.95,South,180,0.0,0.0,79,0.00,,,0.01,meteohub,2013-03-09 03:12:00,
2013-03-08 22:17:00,32.9,27.1,22.95,South,180,0.0,0.0,79,0.00,,,0.01,meteohub,2013-03-09 03:17:00,
2013-03-08 22:22:00,32.7,27.0,22.95,South,180,0.0,0.0,79,0.00,,,0.01,meteohub,2013-03-09 03:22:00,
2013-03-08 22:27:00,32.7,27.0,22.95,South,180,0.0,0.0,79,0.00,,,0.01,meteohub,2013-03-09 03:27:00,
2013-03-08 22:32:00,32.7,27.0,22.95,South,180,0.0,0.0,79,0.00,,,0.01,meteohub,2013-03-09 03:32:00,
2013-03-08 22:37:00,32.7,27.0,22.95,South,180,0.0,0.0,79,0.00,,,0.01,meteohub,2013-03-09 03:37:00,
2013-03-08 22:42:00,32.7,27.3,22.95,South,180,0.0,0.0,80,0.00,,,0.01,meteohub,2013-03-09 03:42:00,
2013-03-08 22:48:00,32.7,27.3,22.95,South,180,0.0,0.0,80,0.00,,,0.01,meteohub,2013-03-09 03:48:00,
2013-03-08 22:53:00,32.7,27.3,22.95,South,180,0.0,0.0,80,0.00,,,0.01,meteohub,2013-03-09 03:53:00,
2013-03-08 22:58:00,32.7,27.3,22.95,South,180,0.0,0.0,80,0.00,,,0.01,meteohub,2013-03-09 03:58:00,
2013-03-08 23:03:00,32.7,27.3,22.95,South,180,0.0,0.0,80,0.00,,,0.01,meteohub,2013-03-09 04:03:00,
2013-03-08 23:08:00,32.9,27.5,22.95,South,180,0.0,0.0,80,0.00,,,0.01,meteohub,2013-03-09 04:08:00,
2013-03-08 23:13:00,32.7,27.3,22.95,South,180,0.0,0.0,80,0.00,,,0.01,meteohub,2013-03-09 04:13:00,
2013-03-08 23:18:00,32.7,27.3,22.96,NW,315,0.0,0.0,80,0.00,,,0.01,meteohub,2013-03-09 04:18:00,
2013-03-08 23:23:00,32.7,27.3,22.96,North,0,0.0,0.0,80,0.00,,,0.01,meteohub,2013-03-09 04:23:00,
2013-03-08 23:28:00,32.7,27.3,22.96,North,0,0.0,0.0,80,0.00,,,0.01,meteohub,2013-03-09 04:28:00,
2013-03-08 23:33:00,32.7,27.3,22.96,NW,315,0.0,0.0,80,0.00,,,0.01,meteohub,2013-03-09 04:33:00,
2013-03-08 23:38:00,32.7,27.3,22.95,North,0,0.0,0.0,80,0.00,,,0.01,meteohub,2013-03-09 04:38:00,
2013-03-08 23:44:00,32.7,27.3,22.95,NW,315,0.0,0.0,80,0.00,,,0.01,meteohub,2013-03-09 04:44:00,
2013-03-08 23:49:00,32.7,27.3,22.95,NW,315,0.0,0.0,80,0.00,,,0.01,meteohub,2013-03-09 04:49:00,
2013-03-08 23:54:00,32.7,27.3,22.96,NW,315,0.0,0.0,80,0.00,,,0.01,meteohub,2013-03-09 04:54:00,
2013-03-08 23:59:00,32.7,27.3,22.95,SW,225,0.0,0.0,80,0.00,,,0.01,meteohub,2013-03-09 04:59:00,